Time,TemperatureF,DewpointF,PressureIn,WindDirection,WindDirectionDegrees,WindSpeedMPH,WindSpeedGustMPH,Humidity,HourlyPrecipIn,Conditions,Clouds,dailyrainin,SoftwareType,DateUTC
2013-03-09 00:00:00,40.0,22.8,30.26,North,0,0.0,0.0,50,0.00,,,0.00,WUHU216HW,2013-03-09 05:00:00,
2013-03-09 00:01:00,39.6,22.5,30.26,North,0,0.0,0.0,50,0.00,,,0.00,WUHU216HW,2013-03-09 05:01:00,
2013-03-09 00:04:00,39.4,22.3,30.27,North,0,0.0,0.0,50,0.00,,,0.00,WUHU216HW,2013-03-09 05:04:00,
2013-03-09 00:09:00,39.2,22.1,30.27,North,0,0.0,0.0,50,0.00,,,0.00,WUHU216HW,2013-03-09 05:09:00,
2013-03-09 00:14:00,39.1,22.4,30.26,North,0,0.0,0.0,51,0.00,,,0.00,WUHU216HW,2013-03-09 05:14:00,
2013-03-09 00:19:00,38.7,22.1,30.27,North,0,0.0,0.0,51,0.00,,,0.00,WUHU216HW,2013-03-09 05:19:00,
2013-03-09 00:24:00,38.5,22.0,30.27,North,0,0.0,0.0,51,0.00,,,0.00,WUHU216HW,2013-03-09 05:24:00,
2013-03-09 00:29:00,38.5,22.0,30.27,North,0,0.0,0.0,51,0.00,,,0.00,WUHU216HW,2013-03-09 05:29:00,
2013-03-09 00:34:00,38.5,22.0,30.27,North,0,0.0,0.0,51,0.00,,,0.00,WUHU216HW,2013-03-09 05:34:00,
2013-03-09 00:39:00,38.3,21.8,30.27,North,0,0.0,0.0,51,0.00,,,0.00,WUHU216HW,2013-03-09 05:39:00,
2013-03-09 00:44:00,38.3,21.8,30.28,North,0,0.0,0.0,51,0.00,,,0.00,WUHU216HW,2013-03-09 05:44:00,
2013-03-09 00:49:00,38.3,21.8,30.29,North,0,0.0,0.0,51,0.00,,,0.00,WUHU216HW,2013-03-09 05:49:00,
2013-03-09 00:54:00,37.8,21.7,30.29,North,0,0.0,0.0,52,0.00,,,0.00,WUHU216HW,2013-03-09 05:54:00,
2013-03-09 00:59:00,37.8,21.2,30.29,North,0,0.0,0.0,51,0.00,,,0.00,WUHU216HW,2013-03-09 05:59:00,
2013-03-09 01:04:00,37.6,21.2,30.28,North,0,0.0,0.0,51,0.00,,,0.00,WUHU216HW,2013-03-09 06:04:00,
2013-03-09 01:09:00,37.3,20.8,30.29,North,0,0.0,0.0,51,0.00,,,0.00,WUHU216HW,2013-03-09 06:09:00,
2013-03-09 01:15:00,37.1,21.1,30.29,North,0,0.0,0.0,52,0.00,,,0.00,WUHU216HW,2013-03-09 06:15:00,
2013-03-09 01:20:00,36.9,20.9,30.28,North,0,0.0,0.0,52,0.00,,,0.00,WUHU216HW,2013-03-09 06:20:00,
2013-03-09 01:25:00,36.9,20.9,30.28,North,0,0.0,0.0,52,0.00,,,0.00,WUHU216HW,2013-03-09 06:25:00,
2013-03-09 01:30:00,36.5,20.6,30.28,North,0,0.0,0.0,52,0.00,,,0.00,WUHU216HW,2013-03-09 06:30:00,
2013-03-09 01:35:00,36.2,20.3,30.28,North,0,0.0,0.0,52,0.00,,,0.00,WUHU216HW,2013-03-09 06:35:00,
2013-03-09 01:40:00,35.8,19.9,30.28,North,0,0.0,0.0,52,0.00,,,0.00,WUHU216HW,2013-03-09 06:40:00,
2013-03-09 01:45:00,35.8,19.9,30.28,North,0,0.0,0.0,52,0.00,,,0.00,WUHU216HW,2013-03-09 06:45:00,
2013-03-09 01:50:00,35.8,19.9,30.28,North,0,0.0,0.0,52,0.00,,,0.00,WUHU216HW,2013-03-09 06:50:00,
2013-03-09 01:55:00,35.8,19.9,30.28,North,0,0.0,0.0,52,0.00,,,0.00,WUHU216HW,2013-03-09 06:55:00,
2013-03-09 02:00:00,35.8,19.9,30.28,North,0,0.0,0.0,52,0.00,,,0.00,WUHU216HW,2013-03-09 07:00:00,
2013-03-09 02:05:00,35.6,19.8,30.29,North,0,0.0,0.0,52,0.00,,,0.00,WUHU216HW,2013-03-09 07:05:00,
2013-03-09 02:10:00,35.6,19.4,30.28,North,0,0.0,0.0,51,0.00,,,0.00,WUHU216HW,2013-03-09 07:10:00,
2013-03-09 02:15:00,35.6,19.4,30.28,North,0,0.0,0.0,51,0.00,,,0.00,WUHU216HW,2013-03-09 07:15:00,
2013-03-09 02:21:00,35.6,19.4,30.28,North,0,0.0,0.0,51,0.00,,,0.00,WUHU216HW,2013-03-09 07:21:00,
2013-03-09 02:26:00,35.5,19.2,30.28,North,0,0.0,0.0,51,0.00,,,0.00,WUHU216HW,2013-03-09 07:26:00,
2013-03-09 02:31:00,35.3,19.0,30.28,North,0,0.0,0.0,51,0.00,,,0.00,WUHU216HW,2013-03-09 07:31:00,
2013-03-09 02:36:00,35.1,18.8,30.28,North,0,0.0,0.0,51,0.00,,,0.00,WUHU216HW,2013-03-09 07:36:00,
2013-03-09 02:41:00,34.9,18.6,30.27,North,0,0.0,0.0,51,0.00,,,0.00,WUHU216HW,2013-03-09 07:41:00,
2013-03-09 02:46:00,34.7,18.5,30.27,North,0,0.0,0.0,51,0.00,,,0.00,WUHU216HW,2013-03-09 07:46:00,
2013-03-09 02:51:00,34.7,18.0,30.27,North,0,0.0,0.0,50,0.00,,,0.00,WUHU216HW,2013-03-09 07:51:00,
2013-03-09 02:56:00,34.6,17.8,30.27,North,0,0.0,0.0,50,0.00,,,0.00,WUHU216HW,2013-03-09 07:56:00,
2013-03-09 03:01:00,34.4,17.6,30.27,North,0,0.0,0.0,50,0.00,,,0.00,WUHU216HW,2013-03-09 08:01:00,
2013-03-09 03:06:00,34.2,17.5,30.27,North,0,0.0,0.0,50,0.00,,,0.00,WUHU216HW,2013-03-09 08:06:00,
2013-03-09 03:11:00,34.2,17.5,30.27,North,0,0.0,0.0,50,0.00,,,0.00,WUHU216HW,2013-03-09 08:11:00,
2013-03-09 03:16:00,34.2,16.9,30.27,North,0,0.0,0.0,49,0.00,,,0.00,WUHU216HW,2013-03-09 08:16:00,
2013-03-09 03:21:00,34.0,17.3,30.27,North,0,0.0,0.0,50,0.00,,,0.00,WUHU216HW,2013-03-09 08:21:00,
2013-03-09 03:26:00,33.8,17.1,30.27,North,0,0.0,0.0,50,0.00,,,0.00,WUHU216HW,2013-03-09 08:26:00,
2013-03-09 03:31:00,33.5,16.7,30.27,North,0,0.0,0.0,50,0.00,,,0.00,WUHU216HW,2013-03-09 08:31:00,
2013-03-09 03:36:00,33.7,16.9,30.27,North,0,0.0,0.0,50,0.00,,,0.00,WUHU216HW,2013-03-09 08:36:00,
2013-03-09 03:41:00,33.5,16.7,30.27,North,0,0.0,0.0,50,0.00,,,0.00,WUHU216HW,2013-03-09 08:41:00,
2013-03-09 03:46:00,33.5,16.7,30.27,North,0,0.0,0.0,50,0.00,,,0.00,WUHU216HW,2013-03-09 08:46:00,
2013-03-09 03:52:00,33.3,16.7,30.27,North,0,0.0,0.0,50,0.00,,,0.00,WUHU216HW,2013-03-09 08:52:00,
2013-03-09 03:57:00,33.1,16.5,30.27,North,0,0.0,0.0,50,0.00,,,0.00,WUHU216HW,2013-03-09 08:57:00,
2013-03-09 04:02:00,33.1,15.9,30.26,North,0,0.0,0.0,49,0.00,,,0.00,WUHU216HW,2013-03-09 09:02:00,
2013-03-09 04:07:00,33.1,15.5,30.26,North,0,0.0,0.0,48,0.00,,,0.00,WUHU216HW,2013-03-09 09:07:00,
2013-03-09 04:12:00,33.5,15.3,30.26,North,0,0.0,0.0,47,0.00,,,0.00,WUHU216HW,2013-03-09 09:12:00,
2013-03-09 04:17:00,33.3,15.1,30.27,North,0,0.0,0.0,47,0.00,,,0.00,WUHU216HW,2013-03-09 09:17:00,
2013-03-09 04:22:00,33.3,14.6,30.27,North,0,0.0,0.0,46,0.00,,,0.00,WUHU216HW,2013-03-09 09:22:00,
2013-03-09 04:27:00,33.1,14.0,30.27,North,0,0.0,0.0,45,0.00,,,0.00,WUHU216HW,2013-03-09 09:27:00,
2013-03-09 04:32:00,33.1,14.0,30.27,North,0,0.0,0.0,45,0.00,,,0.00,WUHU216HW,2013-03-09 09:32:00,
2013-03-09 04:37:00,33.1,14.0,30.27,North,0,0.0,0.0,45,0.00,,,0.00,WUHU216HW,2013-03-09 09:37:00,
2013-03-09 04:42:00,33.3,13.1,30.27,North,0,0.0,0.0,43,0.00,,,0.00,WUHU216HW,2013-03-09 09:42:00,
2013-03-09 04:47:00,33.1,13.0,30.26,North,0,0.0,0.0,43,0.00,,,0.00,WUHU216HW,2013-03-09 09:47:00,
2013-03-09 04:52:00,33.1,13.0,30.26,North,0,0.0,0.0,43,0.00,,,0.00,WUHU216HW,2013-03-09 09:52:00,
2013-03-09 04:57:00,32.9,12.2,30.26,North,0,0.0,0.0,42,0.00,,,0.00,WUHU216HW,2013-03-09 09:57:00,
2013-03-09 05:02:00,32.8,11.1,30.27,North,0,0.0,0.0,40,0.00,,,0.00,WUHU216HW,2013-03-09 10:02:00,
2013-03-09 05:07:00,32.6,10.9,30.27,North,0,0.0,0.0,40,0.00,,,0.00,WUHU216HW,2013-03-09 10:07:00,
2013-03-09 05:12:00,32.4,10.8,30.27,North,0,0.0,0.0,40,0.00,,,0.00,WUHU216HW,2013-03-09 10:12:00,
2013-03-09 05:17:00,32.4,9.6,30.27,North,0,0.0,0.0,38,0.00,,,0.00,WUHU216HW,2013-03-09 10:17:00,
2013-03-09 05:22:00,32.4,9.6,30.27,North,0,0.0,0.0,38,0.00,,,0.00,WUHU216HW,2013-03-09 10:22:00,
2013-03-09 05:27:00,32.0,9.2,30.27,North,0,0.0,0.0,38,0.00,,,0.00,WUHU216HW,2013-03-09 10:27:00,
2013-03-09 05:32:00,32.0,8.6,30.27,North,0,0.0,0.0,37,0.00,,,0.00,WUHU216HW,2013-03-09 10:32:00,
2013-03-09 05:37:00,32.0,8.6,30.28,North,0,0.0,0.0,37,0.00,,,0.00,WUHU216HW,2013-03-09 10:37:00,
2013-03-09 05:42:00,32.0,7.3,30.28,North,0,0.0,0.0,35,0.00,,,0.00,WUHU216HW,2013-03-09 10:42:00,
2013-03-09 05:47:00,32.0,5.4,30.28,North,0,0.0,0.0,32,0.00,,,0.00,WUHU216HW,2013-03-09 10:47:00,
2013-03-09 05:52:00,32.2,5.0,30.28,North,0,0.0,0.0,31,0.00,,,0.00,WUHU216HW,2013-03-09 10:52:00,
2013-03-09 05:57:00,32.0,5.4,30.28,North,0,0.0,0.0,32,0.00,,,0.00,WUHU216HW,2013-03-09 10:57:00,
2013-03-09 06:02:00,32.0,5.4,30.29,North,0,0.0,0.0,32,0.00,,,0.00,WUHU216HW,2013-03-09 11:02:00,
2013-03-09 06:08:00,31.9,5.9,30.28,North,0,0.0,0.0,33,0.00,,,0.00,WUHU216HW,2013-03-09 11:08:00,
2013-03-09 06:13:00,31.7,3.8,30.28,North,0,0.0,0.0,30,0.00,,,0.00,WUHU216HW,2013-03-09 11:13:00,
2013-03-09 06:18:00,31.7,3.8,30.28,North,0,0.0,0.0,30,0.00,,,0.00,WUHU216HW,2013-03-09 11:18:00,
2013-03-09 06:23:00,31.5,1.9,30.29,North,0,0.0,0.0,28,0.00,,,0.00,WUHU216HW,2013-03-09 11:23:00,
2013-03-09 06:28:00,31.5,3.7,30.29,North,0,0.0,0.0,30,0.00,,,0.00,WUHU216HW,2013-03-09 11:28:00,
2013-03-09 06:33:00,31.3,1.8,30.29,North,0,0.0,0.0,28,0.00,,,0.00,WUHU216HW,2013-03-09 11:33:00,
2013-03-09 06:38:00,31.5,1.1,30.29,North,0,0.0,0.0,27,0.00,,,0.00,WUHU216HW,2013-03-09 11:38:00,
2013-03-09 06:43:00,31.5,1.1,30.29,North,0,0.0,0.0,27,0.00,,,0.00,WUHU216HW,2013-03-09 11:43:00,
2013-03-09 06:48:00,31.5,-2.4,30.30,North,0,0.0,0.0,23,0.00,,,0.00,WUHU216HW,2013-03-09 11:48:00,
2013-03-09 06:53:00,31.7,-3.0,30.30,North,0,0.0,0.0,22,0.00,,,0.00,WUHU216HW,2013-03-09 11:53:00,
2013-03-09 06:58:00,31.7,-1.3,30.30,North,0,0.0,0.0,24,0.00,,,0.00,WUHU216HW,2013-03-09 11:58:00,
2013-03-09 07:03:00,31.9,-3.0,30.30,North,0,0.0,0.0,22,0.00,,,0.00,WUHU216HW,2013-03-09 12:03:00,
2013-03-09 07:08:00,32.0,-1.9,30.30,North,0,0.0,0.0,23,0.00,,,0.00,WUHU216HW,2013-03-09 12:08:00,
2013-03-09 07:13:00,32.0,-8.6,30.30,North,0,0.0,0.0,17,0.00,,,0.00,WUHU216HW,2013-03-09 12:13:00,
2013-03-09 07:18:00,32.4,-11.2,30.30,North,0,0.0,0.0,15,0.00,,,0.00,WUHU216HW,2013-03-09 12:18:00,
2013-03-09 07:23:00,32.6,-8.3,30.30,North,0,0.0,0.0,17,0.00,,,0.00,WUHU216HW,2013-03-09 12:23:00,
2013-03-09 07:29:00,32.9,-5.2,30.31,North,0,0.0,0.0,19,0.00,,,0.00,WUHU216HW,2013-03-09 12:29:00,
2013-03-09 07:34:00,33.3,-7.6,30.31,North,0,0.0,0.0,17,0.00,,,0.00,WUHU216HW,2013-03-09 12:34:00,
2013-03-09 07:39:00,33.5,-11.8,30.31,North,0,0.0,0.0,14,0.00,,,0.00,WUHU216HW,2013-03-09 12:39:00,
2013-03-09 07:44:00,34.6,-9.4,30.31,North,0,0.0,0.0,15,0.00,,,0.00,WUHU216HW,2013-03-09 12:44:00,
2013-03-09 07:49:00,35.1,-6.2,30.31,North,0,0.0,0.0,17,0.00,,,0.00,WUHU216HW,2013-03-09 12:49:00,
2013-03-09 07:54:00,36.0,-0.3,30.32,North,0,0.0,0.0,21,0.00,,,0.00,WUHU216HW,2013-03-09 12:54:00,
2013-03-09 07:59:00,36.5,1.0,30.32,North,0,0.0,0.0,22,0.00,,,0.00,WUHU216HW,2013-03-09 12:59:00,
2013-03-09 08:04:00,37.1,3.3,30.32,North,0,0.0,0.0,24,0.00,,,0.00,WUHU216HW,2013-03-09 13:04:00,
2013-03-09 08:09:00,37.8,6.5,30.32,North,0,0.0,0.0,27,0.00,,,0.00,WUHU216HW,2013-03-09 13:09:00,
2013-03-09 08:14:00,38.3,6.9,30.32,North,0,0.0,0.0,27,0.00,,,0.00,WUHU216HW,2013-03-09 13:14:00,
2013-03-09 08:19:00,38.5,8.9,30.32,North,0,0.0,0.0,29,0.00,,,0.00,WUHU216HW,2013-03-09 13:19:00,
2013-03-09 08:25:00,39.2,10.4,30.32,North,0,0.0,0.0,30,0.00,,,0.00,WUHU216HW,2013-03-09 13:25:00,
2013-03-09 08:30:00,39.8,12.9,30.33,North,0,0.0,0.0,33,0.00,,,0.00,WUHU216HW,2013-03-09 13:30:00,
2013-03-09 08:35:00,40.3,14.7,30.33,North,0,0.0,0.0,35,0.00,,,0.00,WUHU216HW,2013-03-09 13:35:00,
2013-03-09 08:40:00,41.0,16.6,30.33,North,0,0.0,0.0,37,0.00,,,0.00,WUHU216HW,2013-03-09 13:40:00,
2013-03-09 08:45:00,41.4,16.9,30.33,North,0,0.0,0.0,37,0.00,,,0.00,WUHU216HW,2013-03-09 13:45:00,
2013-03-09 08:50:00,42.1,18.2,30.33,North,0,0.0,0.0,38,0.00,,,0.00,WUHU216HW,2013-03-09 13:50:00,
2013-03-09 08:55:00,42.8,20.2,30.34,North,0,0.0,0.0,40,0.00,,,0.00,WUHU216HW,2013-03-09 13:55:00,
2013-03-09 09:00:00,43.6,20.2,30.34,North,0,0.0,0.0,39,0.00,,,0.00,WUHU216HW,2013-03-09 14:00:00,
2013-03-09 09:05:00,43.9,22.8,30.35,North,0,0.0,0.0,43,0.00,,,0.00,WUHU216HW,2013-03-09 14:05:00,
2013-03-09 09:10:00,45.2,24.4,30.35,North,0,0.0,0.0,44,0.00,,,0.00,WUHU216HW,2013-03-09 14:10:00,
2013-03-09 09:15:00,45.7,25.5,30.35,North,0,0.0,0.0,45,0.00,,,0.00,WUHU216HW,2013-03-09 14:15:00,
2013-03-09 09:20:00,45.9,26.2,30.35,North,0,0.0,0.0,46,0.00,,,0.00,WUHU216HW,2013-03-09 14:20:00,
2013-03-09 09:25:00,46.4,26.6,30.34,North,0,0.0,0.0,46,0.00,,,0.00,WUHU216HW,2013-03-09 14:25:00,
2013-03-09 09:30:00,46.8,27.0,30.34,North,0,0.0,0.0,46,0.00,,,0.00,WUHU216HW,2013-03-09 14:30:00,
2013-03-09 09:35:00,47.3,28.0,30.34,North,0,0.0,0.0,47,0.00,,,0.00,WUHU216HW,2013-03-09 14:35:00,
2013-03-09 09:40:00,48.1,28.1,30.34,North,0,0.0,0.0,46,0.00,,,0.00,WUHU216HW,2013-03-09 14:40:00,
2013-03-09 09:45:00,48.4,28.5,30.33,North,0,0.0,0.0,46,0.00,,,0.00,WUHU216HW,2013-03-09 14:45:00,
2013-03-09 09:50:00,49.0,28.5,30.34,North,0,0.0,0.0,45,0.00,,,0.00,WUHU216HW,2013-03-09 14:50:00,
2013-03-09 09:55:00,49.9,29.8,30.34,North,0,0.0,0.0,46,0.00,,,0.00,WUHU216HW,2013-03-09 14:55:00,
2013-03-09 10:00:00,50.8,30.1,30.34,North,0,0.0,0.0,45,0.00,,,0.00,WUHU216HW,2013-03-09 15:00:00,
2013-03-09 10:05:00,51.1,30.4,30.33,North,0,0.0,0.0,45,0.00,,,0.00,WUHU216HW,2013-03-09 15:05:00,
2013-03-09 10:10:00,51.5,30.7,30.33,North,0,0.0,0.0,45,0.00,,,0.00,WUHU216HW,2013-03-09 15:10:00,
2013-03-09 10:15:00,51.5,30.2,30.33,North,0,0.0,0.0,44,0.00,,,0.00,WUHU216HW,2013-03-09 15:15:00,
2013-03-09 10:20:00,51.7,30.3,30.33,North,0,0.0,0.0,44,0.00,,,0.00,WUHU216HW,2013-03-09 15:20:00,
2013-03-09 10:25:00,52.0,31.2,30.33,North,0,0.0,0.0,45,0.00,,,0.00,WUHU216HW,2013-03-09 15:25:00,
2013-03-09 10:30:00,52.9,32.6,30.33,North,0,0.0,0.0,46,0.00,,,0.00,WUHU216HW,2013-03-09 15:30:00,
2013-03-09 10:35:00,53.5,33.0,30.32,North,0,0.0,0.0,46,0.00,,,0.00,WUHU216HW,2013-03-09 15:35:00,
2013-03-09 10:40:00,53.8,32.9,30.32,North,0,0.0,0.0,45,0.00,,,0.00,WUHU216HW,2013-03-09 15:40:00,
2013-03-09 10:45:00,54.0,32.4,30.32,North,0,0.0,0.0,44,0.00,,,0.00,WUHU216HW,2013-03-09 15:45:00,
2013-03-09 10:50:00,53.6,30.4,30.33,North,0,0.0,0.0,41,0.00,,,0.00,WUHU216HW,2013-03-09 15:50:00,
2013-03-09 10:55:00,53.5,32.0,30.33,North,0,0.0,0.0,44,0.00,,,0.00,WUHU216HW,2013-03-09 15:55:00,
2013-03-09 11:00:00,53.6,31.6,30.33,North,0,0.0,0.0,43,0.00,,,0.00,WUHU216HW,2013-03-09 16:00:00,
2013-03-09 11:05:00,53.6,31.6,30.33,North,0,0.0,0.0,43,0.00,,,0.00,WUHU216HW,2013-03-09 16:05:00,
2013-03-09 11:10:00,54.2,32.6,30.33,North,0,0.0,0.0,44,0.00,,,0.00,WUHU216HW,2013-03-09 16:10:00,
2013-03-09 11:15:00,55.1,32.9,30.33,North,0,0.0,0.0,43,0.00,,,0.00,WUHU216HW,2013-03-09 16:15:00,
2013-03-09 11:20:00,55.1,31.1,30.32,North,0,0.0,0.0,40,0.00,,,0.00,WUHU216HW,2013-03-09 16:20:00,
2013-03-09 11:25:00,54.4,31.1,30.32,North,0,0.0,0.0,41,0.00,,,0.00,WUHU216HW,2013-03-09 16:25:00,
2013-03-09 11:30:00,54.7,30.9,30.32,North,0,0.0,0.0,40,0.00,,,0.00,WUHU216HW,2013-03-09 16:30:00,
2013-03-09 11:35:00,55.1,31.1,30.32,North,0,0.0,0.0,40,0.00,,,0.00,WUHU216HW,2013-03-09 16:35:00,
2013-03-09 11:40:00,54.9,31.6,30.32,North,0,0.0,0.0,41,0.00,,,0.00,WUHU216HW,2013-03-09 16:40:00,
2013-03-09 11:45:00,55.4,32.6,30.31,North,0,0.0,0.0,42,0.00,,,0.00,WUHU216HW,2013-03-09 16:45:00,
2013-03-09 11:50:00,56.9,33.9,30.31,North,0,0.0,0.0,42,0.00,,,0.00,WUHU216HW,2013-03-09 16:50:00,
2013-03-09 11:55:00,57.6,34.0,30.31,North,0,0.0,0.0,41,0.00,,,0.00,WUHU216HW,2013-03-09 16:55:00,
2013-03-09 12:00:00,57.6,34.6,30.31,North,0,0.0,0.0,42,0.00,,,0.00,WUHU216HW,2013-03-09 17:00:00,
2013-03-09 12:05:00,58.3,34.7,30.31,North,0,0.0,0.0,41,0.00,,,0.00,WUHU216HW,2013-03-09 17:05:00,
2013-03-09 12:10:00,58.3,34.1,30.31,North,0,0.0,0.0,40,0.00,,,0.00,WUHU216HW,2013-03-09 17:10:00,
2013-03-09 12:15:00,58.7,35.0,30.31,North,0,0.0,0.0,41,0.00,,,0.00,WUHU216HW,2013-03-09 17:15:00,
2013-03-09 12:21:00,59.8,36.0,30.30,North,0,0.0,0.0,41,0.00,,,0.00,WUHU216HW,2013-03-09 17:21:00,
2013-03-09 12:26:00,60.3,35.9,30.30,North,0,0.0,0.0,40,0.00,,,0.00,WUHU216HW,2013-03-09 17:26:00,
2013-03-09 12:31:00,60.5,36.0,30.30,North,0,0.0,0.0,40,0.00,,,0.00,WUHU216HW,2013-03-09 17:31:00,
2013-03-09 12:36:00,61.2,36.7,30.30,North,0,0.0,0.0,40,0.00,,,0.00,WUHU216HW,2013-03-09 17:36:00,
2013-03-09 12:41:00,61.7,36.5,30.30,North,0,0.0,0.0,39,0.00,,,0.00,WUHU216HW,2013-03-09 17:41:00,
2013-03-09 12:46:00,61.0,32.2,30.29,North,0,0.0,0.0,34,0.00,,,0.00,WUHU216HW,2013-03-09 17:46:00,
2013-03-09 12:51:00,60.3,33.0,30.29,North,0,0.0,0.0,36,0.00,,,0.00,WUHU216HW,2013-03-09 17:51:00,
2013-03-09 12:56:00,59.9,33.4,30.29,North,0,0.0,0.0,37,0.00,,,0.00,WUHU216HW,2013-03-09 17:56:00,
2013-03-09 13:01:00,60.1,34.3,30.29,North,0,0.0,0.0,38,0.00,,,0.00,WUHU216HW,2013-03-09 18:01:00,
2013-03-09 13:06:00,61.2,36.0,30.28,North,0,0.0,0.0,39,0.00,,,0.00,WUHU216HW,2013-03-09 18:06:00,
2013-03-09 13:11:00,61.9,35.9,30.28,North,0,0.0,0.0,38,0.00,,,0.00,WUHU216HW,2013-03-09 18:11:00,
2013-03-09 13:16:00,61.7,35.7,30.28,North,0,0.0,0.0,38,0.00,,,0.00,WUHU216HW,2013-03-09 18:16:00,
2013-03-09 13:21:00,62.1,33.2,30.28,North,0,0.0,0.0,34,0.00,,,0.00,WUHU216HW,2013-03-09 18:21:00,
2013-03-09 13:26:00,61.6,32.7,30.28,North,0,0.0,0.0,34,0.00,,,0.00,WUHU216HW,2013-03-09 18:26:00,
2013-03-09 13:31:00,61.9,34.5,30.27,North,0,0.0,0.0,36,0.00,,,0.00,WUHU216HW,2013-03-09 18:31:00,
2013-03-09 13:36:00,61.6,34.1,30.27,North,0,0.0,0.0,36,0.00,,,0.00,WUHU216HW,2013-03-09 18:36:00,
2013-03-09 13:41:00,61.6,34.1,30.27,North,0,0.0,0.0,36,0.00,,,0.00,WUHU216HW,2013-03-09 18:41:00,
2013-03-09 13:46:00,61.7,35.0,30.27,North,0,0.0,0.0,37,0.00,,,0.00,WUHU216HW,2013-03-09 18:46:00,
2013-03-09 13:51:00,62.3,34.7,30.27,North,0,0.0,0.0,36,0.00,,,0.00,WUHU216HW,2013-03-09 18:51:00,
2013-03-09 13:56:00,62.5,32.8,30.26,North,0,0.0,0.0,33,0.00,,,0.00,WUHU216HW,2013-03-09 18:56:00,
2013-03-09 14:01:00,62.3,34.0,30.26,North,0,0.0,0.0,35,0.00,,,0.00,WUHU216HW,2013-03-09 19:01:00,
2013-03-09 14:06:00,63.0,35.5,30.26,North,0,0.0,0.0,36,0.00,,,0.00,WUHU216HW,2013-03-09 19:06:00,
2013-03-09 14:11:00,63.5,35.9,30.25,North,0,0.0,0.0,36,0.00,,,0.00,WUHU216HW,2013-03-09 19:11:00,
2013-03-09 14:16:00,64.1,36.4,30.25,North,0,0.0,0.0,36,0.00,,,0.00,WUHU216HW,2013-03-09 19:16:00,
2013-03-09 14:22:00,63.9,34.8,30.25,North,0,0.0,0.0,34,0.00,,,0.00,WUHU216HW,2013-03-09 19:22:00,
2013-03-09 14:27:00,64.1,36.4,30.25,North,0,0.0,0.0,36,0.00,,,0.00,WUHU216HW,2013-03-09 19:27:00,
2013-03-09 14:32:00,63.9,34.8,30.24,North,0,0.0,0.0,34,0.00,,,0.00,WUHU216HW,2013-03-09 19:32:00,
2013-03-09 14:37:00,63.9,34.8,30.24,North,0,0.0,0.0,34,0.00,,,0.00,WUHU216HW,2013-03-09 19:37:00,
2013-03-09 14:42:00,64.4,36.7,30.24,North,0,0.0,0.0,36,0.00,,,0.00,WUHU216HW,2013-03-09 19:42:00,
2013-03-09 14:47:00,64.4,35.3,30.24,North,0,0.0,0.0,34,0.00,,,0.00,WUHU216HW,2013-03-09 19:47:00,
2013-03-09 14:52:00,64.4,34.6,30.23,North,0,0.0,0.0,33,0.00,,,0.00,WUHU216HW,2013-03-09 19:52:00,
2013-03-09 14:57:00,64.4,35.3,30.23,North,0,0.0,0.0,34,0.00,,,0.00,WUHU216HW,2013-03-09 19:57:00,
2013-03-09 15:02:00,64.8,36.4,30.23,North,0,0.0,0.0,35,0.00,,,0.00,WUHU216HW,2013-03-09 20:02:00,
2013-03-09 15:07:00,64.4,32.4,30.23,North,0,0.0,0.0,30,0.00,,,0.00,WUHU216HW,2013-03-09 20:07:00,
2013-03-09 15:12:00,63.5,33.8,30.22,North,0,0.0,0.0,33,0.00,,,0.00,WUHU216HW,2013-03-09 20:12:00,
2013-03-09 15:17:00,63.9,34.1,30.22,North,0,0.0,0.0,33,0.00,,,0.00,WUHU216HW,2013-03-09 20:17:00,
2013-03-09 15:22:00,64.1,31.1,30.22,North,0,0.0,0.0,29,0.00,,,0.00,WUHU216HW,2013-03-09 20:22:00,
2013-03-09 15:27:00,63.7,33.2,30.22,North,0,0.0,0.0,32,0.00,,,0.00,WUHU216HW,2013-03-09 20:27:00,
2013-03-09 15:32:00,63.7,33.2,30.22,North,0,0.0,0.0,32,0.00,,,0.00,WUHU216HW,2013-03-09 20:32:00,
2013-03-09 15:37:00,64.8,34.9,30.22,North,0,0.0,0.0,33,0.00,,,0.00,WUHU216HW,2013-03-09 20:37:00,
2013-03-09 15:42:00,65.0,35.7,30.22,North,0,0.0,0.0,34,0.00,,,0.00,WUHU216HW,2013-03-09 20:42:00,
2013-03-09 15:47:00,65.2,35.2,30.22,North,0,0.0,0.0,33,0.00,,,0.00,WUHU216HW,2013-03-09 20:47:00,
2013-03-09 15:52:00,64.8,34.2,30.22,North,0,0.0,0.0,32,0.00,,,0.00,WUHU216HW,2013-03-09 20:52:00,
2013-03-09 15:57:00,64.8,34.2,30.22,North,0,0.0,0.0,32,0.00,,,0.00,WUHU216HW,2013-03-09 20:57:00,
2013-03-09 16:02:00,64.1,32.8,30.22,North,0,0.0,0.0,31,0.00,,,0.00,WUHU216HW,2013-03-09 21:02:00,
2013-03-09 16:08:00,64.1,33.5,30.22,North,0,0.0,0.0,32,0.00,,,0.00,WUHU216HW,2013-03-09 21:08:00,
2013-03-09 16:13:00,64.4,34.6,30.22,North,0,0.0,0.0,33,0.00,,,0.00,WUHU216HW,2013-03-09 21:13:00,
2013-03-09 16:18:00,64.8,34.9,30.22,North,0,0.0,0.0,33,0.00,,,0.00,WUHU216HW,2013-03-09 21:18:00,
2013-03-09 16:23:00,65.0,35.0,30.22,North,0,0.0,0.0,33,0.00,,,0.00,WUHU216HW,2013-03-09 21:23:00,
2013-03-09 16:28:00,64.6,34.0,30.21,North,0,0.0,0.0,32,0.00,,,0.00,WUHU216HW,2013-03-09 21:28:00,
2013-03-09 16:33:00,64.3,33.7,30.22,North,0,0.0,0.0,32,0.00,,,0.00,WUHU216HW,2013-03-09 21:33:00,
2013-03-09 16:38:00,64.3,34.4,30.22,North,0,0.0,0.0,33,0.00,,,0.00,WUHU216HW,2013-03-09 21:38:00,
2013-03-09 16:43:00,64.3,33.7,30.22,North,0,0.0,0.0,32,0.00,,,0.00,WUHU216HW,2013-03-09 21:43:00,
2013-03-09 16:48:00,64.1,34.2,30.22,North,0,0.0,0.0,33,0.00,,,0.00,WUHU216HW,2013-03-09 21:48:00,
2013-03-09 16:53:00,64.1,34.2,30.22,North,0,0.0,0.0,33,0.00,,,0.00,WUHU216HW,2013-03-09 21:53:00,
2013-03-09 16:58:00,64.3,34.4,30.22,North,0,0.0,0.0,33,0.00,,,0.00,WUHU216HW,2013-03-09 21:58:00,
2013-03-09 17:03:00,63.9,34.1,30.22,North,0,0.0,0.0,33,0.00,,,0.00,WUHU216HW,2013-03-09 22:03:00,
2013-03-09 17:08:00,63.7,33.9,30.22,North,0,0.0,0.0,33,0.00,,,0.00,WUHU216HW,2013-03-09 22:08:00,
2013-03-09 17:13:00,63.5,34.5,30.22,North,0,0.0,0.0,34,0.00,,,0.00,WUHU216HW,2013-03-09 22:13:00,
2013-03-09 17:18:00,63.4,34.3,30.21,North,0,0.0,0.0,34,0.00,,,0.00,WUHU216HW,2013-03-09 22:18:00,
2013-03-09 17:23:00,63.0,33.3,30.21,North,0,0.0,0.0,33,0.00,,,0.00,WUHU216HW,2013-03-09 22:23:00,
2013-03-09 17:28:00,62.8,33.1,30.21,North,0,0.0,0.0,33,0.00,,,0.00,WUHU216HW,2013-03-09 22:28:00,
2013-03-09 17:33:00,62.6,33.7,30.22,North,0,0.0,0.0,34,0.00,,,0.00,WUHU216HW,2013-03-09 22:33:00,
2013-03-09 17:38:00,62.5,33.5,30.22,North,0,0.0,0.0,34,0.00,,,0.00,WUHU216HW,2013-03-09 22:38:00,
2013-03-09 17:43:00,62.1,32.5,30.22,North,0,0.0,0.0,33,0.00,,,0.00,WUHU216HW,2013-03-09 22:43:00,
2013-03-09 17:48:00,61.9,33.0,30.22,North,0,0.0,0.0,34,0.00,,,0.00,WUHU216HW,2013-03-09 22:48:00,
2013-03-09 17:54:00,61.6,32.7,30.22,North,0,0.0,0.0,34,0.00,,,0.00,WUHU216HW,2013-03-09 22:54:00,
2013-03-09 17:59:00,61.2,32.4,30.22,North,0,0.0,0.0,34,0.00,,,0.00,WUHU216HW,2013-03-09 22:59:00,
2013-03-09 18:04:00,61.0,32.2,30.22,North,0,0.0,0.0,34,0.00,,,0.00,WUHU216HW,2013-03-09 23:04:00,
2013-03-09 18:09:00,60.5,32.5,30.22,North,0,0.0,0.0,35,0.00,,,0.00,WUHU216HW,2013-03-09 23:09:00,
2013-03-09 18:14:00,59.9,32.7,30.22,North,0,0.0,0.0,36,0.00,,,0.00,WUHU216HW,2013-03-09 23:14:00,
2013-03-09 18:19:00,59.4,32.2,30.22,North,0,0.0,0.0,36,0.00,,,0.00,WUHU216HW,2013-03-09 23:19:00,
2013-03-09 18:24:00,59.0,32.0,30.22,North,0,0.0,0.0,36,0.00,,,0.00,WUHU216HW,2013-03-09 23:24:00,
2013-03-09 18:29:00,58.7,31.6,30.22,North,0,0.0,0.0,36,0.00,,,0.00,WUHU216HW,2013-03-09 23:29:00,
2013-03-09 18:34:00,58.0,31.0,30.22,North,0,0.0,0.0,36,0.00,,,0.00,WUHU216HW,2013-03-09 23:34:00,
2013-03-09 18:39:00,57.6,31.3,30.22,North,0,0.0,0.0,37,0.00,,,0.00,WUHU216HW,2013-03-09 23:39:00,
2013-03-09 18:44:00,57.2,31.1,30.22,North,0,0.0,0.0,37,0.00,,,0.00,WUHU216HW,2013-03-09 23:44:00,
2013-03-09 18:49:00,56.3,30.9,30.22,North,0,0.0,0.0,38,0.00,,,0.00,WUHU216HW,2013-03-09 23:49:00,
2013-03-09 18:54:00,56.3,30.9,30.22,North,0,0.0,0.0,38,0.00,,,0.00,WUHU216HW,2013-03-09 23:54:00,
2013-03-09 18:59:00,55.4,30.1,30.22,North,0,0.0,0.0,38,0.00,,,0.00,WUHU216HW,2013-03-09 23:59:00,
2013-03-09 19:04:00,54.4,29.9,30.22,North,0,0.0,0.0,39,0.00,,,0.00,WUHU216HW,2013-03-10 00:04:00,
2013-03-09 19:09:00,53.8,29.3,30.22,North,0,0.0,0.0,39,0.00,,,0.00,WUHU216HW,2013-03-10 00:09:00,
2013-03-09 19:14:00,53.5,29.1,30.22,North,0,0.0,0.0,39,0.00,,,0.00,WUHU216HW,2013-03-10 00:14:00,
2013-03-09 19:19:00,53.3,29.5,30.22,North,0,0.0,0.0,40,0.00,,,0.00,WUHU216HW,2013-03-10 00:19:00,
2013-03-09 19:24:00,52.6,28.9,30.23,North,0,0.0,0.0,40,0.00,,,0.00,WUHU216HW,2013-03-10 00:24:00,
2013-03-09 19:29:00,52.4,29.4,30.23,North,0,0.0,0.0,41,0.00,,,0.00,WUHU216HW,2013-03-10 00:29:00,
2013-03-09 19:34:00,51.8,28.8,30.23,North,0,0.0,0.0,41,0.00,,,0.00,WUHU216HW,2013-03-10 00:34:00,
2013-03-09 19:39:00,51.7,29.3,30.23,North,0,0.0,0.0,42,0.00,,,0.00,WUHU216HW,2013-03-10 00:39:00,
2013-03-09 19:44:00,51.3,28.9,30.23,North,0,0.0,0.0,42,0.00,,,0.00,WUHU216HW,2013-03-10 00:44:00,
2013-03-09 19:49:00,51.3,28.9,30.23,North,0,0.0,0.0,42,0.00,,,0.00,WUHU216HW,2013-03-10 00:49:00,
2013-03-09 19:54:00,51.5,29.1,30.23,North,0,0.0,0.0,42,0.00,,,0.00,WUHU216HW,2013-03-10 00:54:00,
2013-03-09 19:59:00,51.3,28.9,30.23,North,0,0.0,0.0,42,0.00,,,0.00,WUHU216HW,2013-03-10 00:59:00,
2013-03-09 20:04:00,50.9,28.5,30.23,North,0,0.0,0.0,42,0.00,,,0.00,WUHU216HW,2013-03-10 01:04:00,
2013-03-09 20:09:00,50.4,28.6,30.23,North,0,0.0,0.0,43,0.00,,,0.00,WUHU216HW,2013-03-10 01:09:00,
2013-03-09 20:14:00,50.2,28.4,30.23,North,0,0.0,0.0,43,0.00,,,0.00,WUHU216HW,2013-03-10 01:14:00,
2013-03-09 20:19:00,50.2,28.4,30.23,North,0,0.0,0.0,43,0.00,,,0.00,WUHU216HW,2013-03-10 01:19:00,
2013-03-09 20:24:00,50.0,28.9,30.23,North,0,0.0,0.0,44,0.00,,,0.00,WUHU216HW,2013-03-10 01:24:00,
2013-03-09 20:29:00,49.7,28.5,30.23,North,0,0.0,0.0,44,0.00,,,0.00,WUHU216HW,2013-03-10 01:29:00,
2013-03-09 20:34:00,49.7,29.1,30.24,North,0,0.0,0.0,45,0.00,,,0.00,WUHU216HW,2013-03-10 01:34:00,
2013-03-09 20:39:00,49.7,29.1,30.24,North,0,0.0,0.0,45,0.00,,,0.00,WUHU216HW,2013-03-10 01:39:00,
2013-03-09 20:44:00,49.5,28.9,30.25,North,0,0.0,0.0,45,0.00,,,0.00,WUHU216HW,2013-03-10 01:44:00,
2013-03-09 20:49:00,49.3,28.7,30.25,North,0,0.0,0.0,45,0.00,,,0.00,WUHU216HW,2013-03-10 01:49:00,
2013-03-09 20:54:00,49.0,28.5,30.25,North,0,0.0,0.0,45,0.00,,,0.00,WUHU216HW,2013-03-10 01:54:00,
2013-03-09 20:59:00,48.6,29.2,30.25,North,0,0.0,0.0,47,0.00,,,0.00,WUHU216HW,2013-03-10 01:59:00,
2013-03-09 21:04:00,48.6,29.2,30.25,North,0,0.0,0.0,47,0.00,,,0.00,WUHU216HW,2013-03-10 02:04:00,
2013-03-09 21:09:00,48.8,29.4,30.25,North,0,0.0,0.0,47,0.00,,,0.00,WUHU216HW,2013-03-10 02:09:00,
2013-03-09 21:15:00,48.8,29.4,30.25,North,0,0.0,0.0,47,0.00,,,0.00,WUHU216HW,2013-03-10 02:15:00,
2013-03-09 21:20:00,49.1,29.7,30.25,North,0,0.0,0.0,47,0.00,,,0.00,WUHU216HW,2013-03-10 02:20:00,
2013-03-09 21:25:00,49.7,30.3,30.25,North,0,0.0,0.0,47,0.00,,,0.00,WUHU216HW,2013-03-10 02:25:00,
2013-03-09 21:30:00,50.2,30.7,30.25,North,0,0.0,0.0,47,0.00,,,0.00,WUHU216HW,2013-03-10 02:30:00,
2013-03-09 21:35:00,50.6,31.1,30.25,North,0,0.0,0.0,47,0.00,,,0.00,WUHU216HW,2013-03-10 02:35:00,
2013-03-09 21:40:00,50.4,30.9,30.25,North,0,0.0,0.0,47,0.00,,,0.00,WUHU216HW,2013-03-10 02:40:00,
2013-03-09 21:45:00,50.2,31.2,30.25,North,0,0.0,0.0,48,0.00,,,0.00,WUHU216HW,2013-03-10 02:45:00,
2013-03-09 21:50:00,50.0,31.7,30.25,North,0,0.0,0.0,49,0.00,,,0.00,WUHU216HW,2013-03-10 02:50:00,
2013-03-09 21:55:00,49.7,30.8,30.25,North,0,0.0,0.0,48,0.00,,,0.00,WUHU216HW,2013-03-10 02:55:00,
2013-03-09 22:00:00,49.3,31.0,30.26,North,0,0.0,0.0,49,0.00,,,0.00,WUHU216HW,2013-03-10 03:00:00,
2013-03-09 22:05:00,49.1,31.3,30.25,North,0,0.0,0.0,50,0.00,,,0.00,WUHU216HW,2013-03-10 03:05:00,
2013-03-09 22:10:00,49.0,30.6,30.25,North,0,0.0,0.0,49,0.00,,,0.00,WUHU216HW,2013-03-10 03:10:00,
2013-03-09 22:16:00,49.0,30.6,30.25,North,0,0.0,0.0,49,0.00,,,0.00,WUHU216HW,2013-03-10 03:16:00,
2013-03-09 22:21:00,48.4,30.1,30.25,North,0,0.0,0.0,49,0.00,,,0.00,WUHU216HW,2013-03-10 03:21:00,
2013-03-09 22:26:00,48.1,29.7,30.26,North,0,0.0,0.0,49,0.00,,,0.00,WUHU216HW,2013-03-10 03:26:00,
2013-03-09 22:31:00,47.9,29.5,30.26,North,0,0.0,0.0,49,0.00,,,0.00,WUHU216HW,2013-03-10 03:31:00,
2013-03-09 22:36:00,47.5,29.3,30.26,North,0,0.0,0.0,49,0.00,,,0.00,WUHU216HW,2013-03-10 03:36:00,
2013-03-09 22:41:00,47.3,29.6,30.26,North,0,0.0,0.0,50,0.00,,,0.00,WUHU216HW,2013-03-10 03:41:00,
2013-03-09 22:46:00,47.3,29.6,30.26,North,0,0.0,0.0,50,0.00,,,0.00,WUHU216HW,2013-03-10 03:46:00,
2013-03-09 22:51:00,47.7,29.4,30.26,North,0,0.0,0.0,49,0.00,,,0.00,WUHU216HW,2013-03-10 03:51:00,
2013-03-09 22:56:00,47.7,29.4,30.26,North,0,0.0,0.0,49,0.00,,,0.00,WUHU216HW,2013-03-10 03:56:00,
2013-03-09 23:01:00,47.9,30.1,30.26,North,0,0.0,0.0,50,0.00,,,0.00,WUHU216HW,2013-03-10 04:01:00,
2013-03-09 23:06:00,47.9,29.5,30.26,North,0,0.0,0.0,49,0.00,,,0.00,WUHU216HW,2013-03-10 04:06:00,
2013-03-09 23:11:00,47.9,29.5,30.26,North,0,0.0,0.0,49,0.00,,,0.00,WUHU216HW,2013-03-10 04:11:00,
2013-03-09 23:16:00,47.7,29.4,30.26,North,0,0.0,0.0,49,0.00,,,0.00,WUHU216HW,2013-03-10 04:16:00,
2013-03-09 23:21:00,47.5,29.3,30.25,North,0,0.0,0.0,49,0.00,,,0.00,WUHU216HW,2013-03-10 04:21:00,
2013-03-09 23:26:00,47.3,29.6,30.25,North,0,0.0,0.0,50,0.00,,,0.00,WUHU216HW,2013-03-10 04:26:00,
2013-03-09 23:31:00,47.2,29.4,30.25,North,0,0.0,0.0,50,0.00,,,0.00,WUHU216HW,2013-03-10 04:31:00,
2013-03-09 23:36:00,46.8,29.2,30.25,North,0,0.0,0.0,50,0.00,,,0.00,WUHU216HW,2013-03-10 04:36:00,
2013-03-09 23:42:00,46.6,28.5,30.25,North,0,0.0,0.0,49,0.00,,,0.00,WUHU216HW,2013-03-10 04:42:00,
2013-03-09 23:46:00,46.6,28.5,30.25,North,0,0.0,0.0,49,0.00,,,0.00,WUHU216HW,2013-03-10 04:46:00,
2013-03-09 23:52:00,46.3,28.1,30.25,North,0,0.0,0.0,49,0.00,,,0.00,WUHU216HW,2013-03-10 04:52:00,
2013-03-09 23:57:00,46.1,27.9,30.25,North,0,0.0,0.0,49,0.00,,,0.00,WUHU216HW,2013-03-10 04:57:00,